Tallahassee, Florida
Current Conditions -  °F | °C
As of 12:17 AM on Wednesday 26 Nov 2014 (Local Time) from KTLH Reporting Station
Overcast Overcast  
Wind Chill: 43°   Ceiling: 3100
Heat Index: 48°   Visibility: 10mi
Dew Point: 44°   Wind: 13mph
Humidity: 86%   Direction: 340°NNW
Pressure: 30.03"   Gusts: 20mph
Location:  30.44°N, 84.28°W
Report Text: KTLH 260517Z AUTO 34011G17KT 10SM OVC031 09/07 A3003 RMK AO2 RAE0456 P0000 T00890067 $
Loading
Personal Weather Stations






























Interactive Weather Map New forecast layout! Learn more

10-Day Weather Forecast

Advertisements
Track Severe Weather on mobile